createdAt,value
2022-07-30T00:00:00.231Z,100030
2022-07-30T00:01:00.265Z,100020
2022-07-30T00:02:00.331Z,100030
2022-07-30T00:03:00.369Z,100030
2022-07-30T00:04:00.312Z,100030
2022-07-30T00:05:00.562Z,100020
2022-07-30T00:06:00.622Z,100020
2022-07-30T00:07:00.925Z,100020
2022-07-30T00:08:00.258Z,100020
2022-07-30T00:09:00.255Z,100020
2022-07-30T00:10:01.691Z,100030
2022-07-30T00:11:00.464Z,100020
2022-07-30T00:12:00.291Z,100020
2022-07-30T00:13:00.256Z,100020
2022-07-30T00:14:00.652Z,100020
2022-07-30T00:15:00.278Z,100020
2022-07-30T00:16:00.218Z,100020
2022-07-30T00:17:01.279Z,100020
2022-07-30T00:18:00.239Z,100020
2022-07-30T00:19:00.283Z,100020
2022-07-30T00:20:00.335Z,100010
2022-07-30T00:21:00.255Z,100010
2022-07-30T00:22:00.373Z,100010
2022-07-30T00:23:02.897Z,100010
2022-07-30T00:24:02.036Z,100010
2022-07-30T00:25:00.277Z,100010
2022-07-30T00:26:00.375Z,100000
2022-07-30T00:27:00.578Z,100010
2022-07-30T00:28:00.301Z,100010
2022-07-30T00:29:00.269Z,100000
2022-07-30T00:30:01.496Z,100010
2022-07-30T00:31:00.542Z,100010
2022-07-30T00:32:00.298Z,100000
2022-07-30T00:33:00.328Z,100000
2022-07-30T00:34:00.225Z,100000
2022-07-30T00:35:00.397Z,100000
2022-07-30T00:36:00.239Z,100010
2022-07-30T00:37:00.446Z,100010
2022-07-30T00:38:00.419Z,100000
2022-07-30T00:39:00.276Z,100000
2022-07-30T00:40:00.571Z,100000
2022-07-30T00:41:00.248Z,100000
2022-07-30T00:42:02.742Z,100000
2022-07-30T00:43:00.211Z,100000
2022-07-30T00:44:00.223Z,100000
2022-07-30T00:45:00.274Z,100000
2022-07-30T00:46:00.499Z,100000
2022-07-30T00:47:00.807Z,100000
2022-07-30T00:48:00.266Z,100000
2022-07-30T00:49:00.300Z,100000
2022-07-30T00:50:00.432Z,100000
2022-07-30T00:51:00.245Z,100000
2022-07-30T00:52:00.274Z,100000
2022-07-30T00:53:00.236Z,100000
2022-07-30T00:54:00.257Z,100000
2022-07-30T00:55:01.566Z,100000
2022-07-30T00:56:01.246Z,99990
2022-07-30T00:57:00.497Z,99990
2022-07-30T00:58:00.725Z,99990
2022-07-30T00:59:00.331Z,99990
2022-07-30T01:00:00.375Z,99990
2022-07-30T01:01:00.732Z,99990
2022-07-30T01:02:00.345Z,99990
2022-07-30T01:03:00.294Z,99980
2022-07-30T01:04:00.773Z,99990
2022-07-30T01:05:00.235Z,99980
2022-07-30T01:06:00.224Z,99980
2022-07-30T01:07:00.541Z,99980
2022-07-30T01:08:00.225Z,99990
2022-07-30T01:09:00.266Z,99980
2022-07-30T01:10:01.021Z,99980
2022-07-30T01:11:00.698Z,99990
2022-07-30T01:12:00.503Z,99990
2022-07-30T01:13:00.374Z,99990
2022-07-30T01:14:00.371Z,99990
2022-07-30T01:15:02.737Z,99980
2022-07-30T01:16:00.426Z,99980
2022-07-30T01:17:01.477Z,99980
2022-07-30T01:18:03.920Z,99980
2022-07-30T01:19:04.713Z,99980
2022-07-30T01:20:12.113Z,99980
2022-07-30T01:21:06.466Z,99980
2022-07-30T01:22:09.575Z,99980
2022-07-30T01:23:17.593Z,99980
2022-07-30T01:24:14.789Z,99980
2022-07-30T01:25:10.863Z,99980
2022-07-30T01:26:04.362Z,99980
2022-07-30T01:27:01.165Z,99980
2022-07-30T01:28:06.163Z,99980
2022-07-30T01:29:00.868Z,99980
2022-07-30T01:30:04.137Z,99980
2022-07-30T01:31:02.884Z,99980
2022-07-30T01:32:01.616Z,99980
2022-07-30T01:33:02.086Z,99980
2022-07-30T01:34:01.211Z,99980
2022-07-30T01:35:02.055Z,99980
2022-07-30T01:36:01.462Z,99980
2022-07-30T01:37:03.008Z,99970
2022-07-30T01:38:02.945Z,99970
2022-07-30T01:39:01.428Z,99970
2022-07-30T01:40:01.290Z,99970
2022-07-30T01:41:01.693Z,99970
2022-07-30T01:42:01.825Z,99970
2022-07-30T01:43:02.581Z,99960
2022-07-30T01:44:01.927Z,99970
2022-07-30T01:45:02.007Z,99970
2022-07-30T01:46:02.042Z,99960
2022-07-30T01:47:02.423Z,99960
2022-07-30T01:48:03.148Z,99970
2022-07-30T01:49:01.790Z,99970
2022-07-30T01:50:03.560Z,99960
2022-07-30T01:51:03.906Z,99960
2022-07-30T01:52:02.012Z,99960
2022-07-30T01:53:00.838Z,99960
2022-07-30T01:54:00.977Z,99960
2022-07-30T01:55:01.604Z,99960
2022-07-30T01:56:01.235Z,99960
2022-07-30T01:57:01.379Z,99960
2022-07-30T01:58:02.302Z,99960
2022-07-30T01:59:02.143Z,99950
2022-07-30T02:00:04.969Z,99950
2022-07-30T02:01:00.628Z,99950
2022-07-30T02:02:00.754Z,99960
2022-07-30T02:03:00.357Z,99950
2022-07-30T02:04:01.692Z,99950
2022-07-30T02:05:00.594Z,99960
2022-07-30T02:06:16.719Z,99950
2022-07-30T02:07:05.299Z,99950
2022-07-30T02:08:06.435Z,99950
2022-07-30T02:09:10.926Z,99950
2022-07-30T02:10:06.566Z,99950
2022-07-30T02:11:10.946Z,99950
2022-07-30T02:12:01.710Z,99950
2022-07-30T02:13:04.985Z,99950
2022-07-30T02:14:01.891Z,99950
2022-07-30T02:15:10.539Z,99960
2022-07-30T02:16:14.008Z,99960
2022-07-30T02:17:02.224Z,99960
2022-07-30T02:18:09.479Z,99960
2022-07-30T02:19:07.638Z,99960
2022-07-30T02:20:01.573Z,99960
2022-07-30T02:21:07.399Z,99960
2022-07-30T02:22:05.283Z,99950
2022-07-30T02:23:05.209Z,99950
2022-07-30T02:24:04.142Z,99950
2022-07-30T02:25:01.701Z,99950
2022-07-30T02:26:01.459Z,99960
2022-07-30T02:27:04.270Z,99950
2022-07-30T02:28:06.847Z,99950
2022-07-30T02:29:02.155Z,99950
2022-07-30T02:30:02.038Z,99950
2022-07-30T02:31:00.475Z,99950
2022-07-30T02:32:03.786Z,99950
2022-07-30T02:33:04.697Z,99940
2022-07-30T02:34:03.959Z,99940
2022-07-30T02:35:06.950Z,99940
2022-07-30T02:36:01.650Z,99940
2022-07-30T02:37:01.704Z,99940
2022-07-30T02:38:01.539Z,99940
2022-07-30T02:39:03.321Z,99940
2022-07-30T02:40:00.281Z,99940
2022-07-30T02:41:01.447Z,99940
2022-07-30T02:42:01.834Z,99940
2022-07-30T02:43:00.797Z,99940
2022-07-30T02:44:01.675Z,99940
2022-07-30T02:45:01.678Z,99940
2022-07-30T02:46:01.520Z,99940
2022-07-30T02:47:04.789Z,99940
2022-07-30T02:48:02.733Z,99930
2022-07-30T02:49:02.265Z,99930
2022-07-30T02:50:01.453Z,99940
2022-07-30T02:51:03.346Z,99930
2022-07-30T02:52:01.791Z,99930
2022-07-30T02:53:02.500Z,99930
2022-07-30T02:54:01.315Z,99920
2022-07-30T02:55:02.182Z,99930
2022-07-30T02:56:01.868Z,99920
2022-07-30T02:57:01.552Z,99920
2022-07-30T02:58:01.555Z,99920
2022-07-30T02:59:01.987Z,99920
2022-07-30T03:00:03.268Z,99920
2022-07-30T03:01:01.544Z,99920
2022-07-30T03:02:02.485Z,99920
2022-07-30T03:03:03.667Z,99920
2022-07-30T03:04:01.689Z,99920
2022-07-30T03:05:02.609Z,99920
2022-07-30T03:06:00.761Z,99920
2022-07-30T03:07:04.841Z,99920
2022-07-30T03:08:01.534Z,99920
2022-07-30T03:09:02.260Z,99920
2022-07-30T03:10:01.544Z,99920
2022-07-30T03:11:01.852Z,99920
2022-07-30T03:12:01.825Z,99910
2022-07-30T03:13:03.227Z,99920
2022-07-30T03:14:00.314Z,99920
2022-07-30T03:15:00.723Z,99910
2022-07-30T03:16:03.667Z,99920
2022-07-30T03:17:02.610Z,99920
2022-07-30T03:18:01.640Z,99920
2022-07-30T03:19:02.346Z,99920
2022-07-30T03:20:01.869Z,99910
2022-07-30T03:21:01.459Z,99910
2022-07-30T03:22:01.063Z,99920
2022-07-30T03:23:03.096Z,99920
2022-07-30T03:24:01.325Z,99920
2022-07-30T03:25:01.846Z,99920
2022-07-30T03:26:01.919Z,99920
2022-07-30T03:27:00.582Z,99920
2022-07-30T03:28:02.174Z,99920
2022-07-30T03:29:01.660Z,99910
2022-07-30T03:30:01.543Z,99910
2022-07-30T03:31:00.590Z,99910
2022-07-30T03:32:00.961Z,99910
2022-07-30T03:33:00.758Z,99910
2022-07-30T03:34:01.400Z,99910
2022-07-30T03:35:05.908Z,99910
2022-07-30T03:36:01.228Z,99910
2022-07-30T03:37:03.325Z,99910
2022-07-30T03:38:01.377Z,99910
2022-07-30T03:39:02.527Z,99900
2022-07-30T03:40:00.983Z,99910
2022-07-30T03:41:00.900Z,99910
2022-07-30T03:42:01.328Z,99910
2022-07-30T03:43:00.502Z,99910
2022-07-30T03:44:00.998Z,99910
2022-07-30T03:45:04.414Z,99900
2022-07-30T03:46:02.397Z,99900
2022-07-30T03:47:01.895Z,99900
2022-07-30T03:48:00.773Z,99900
2022-07-30T03:49:00.594Z,99900
2022-07-30T03:50:00.246Z,99900
2022-07-30T03:51:02.715Z,99900
2022-07-30T03:52:00.928Z,99900
2022-07-30T03:53:02.738Z,99900
2022-07-30T03:54:01.169Z,99900
2022-07-30T03:55:02.106Z,99900
2022-07-30T03:56:01.043Z,99900
2022-07-30T03:57:01.740Z,99910
2022-07-30T03:58:01.064Z,99910
2022-07-30T03:59:00.891Z,99900
2022-07-30T04:00:00.531Z,99910
2022-07-30T04:01:00.276Z,99910
2022-07-30T04:02:05.821Z,99910
2022-07-30T04:03:00.240Z,99910
2022-07-30T04:04:08.423Z,99900
2022-07-30T04:05:00.229Z,99900
2022-07-30T04:06:00.860Z,99900
2022-07-30T04:07:00.798Z,99900
2022-07-30T04:08:00.233Z,99900
2022-07-30T04:09:00.255Z,99900
2022-07-30T04:10:00.338Z,99900
2022-07-30T04:11:00.245Z,99890
2022-07-30T04:12:00.304Z,99900
2022-07-30T04:13:00.233Z,99890
2022-07-30T04:14:00.642Z,99890
2022-07-30T04:15:00.952Z,99890
2022-07-30T04:16:39.641Z,99890
2022-07-30T04:17:04.728Z,99880
2022-07-30T04:18:03.372Z,99890
2022-07-30T04:19:04.230Z,99880
2022-07-30T04:20:05.303Z,99880
2022-07-30T04:21:04.497Z,99880
2022-07-30T04:22:01.660Z,99880
2022-07-30T04:23:01.757Z,99880
2022-07-30T04:24:03.623Z,99880
2022-07-30T04:25:02.485Z,99880
2022-07-30T04:26:00.945Z,99880
2022-07-30T04:27:01.963Z,99890
2022-07-30T04:28:03.225Z,99880
2022-07-30T04:29:04.640Z,99880
2022-07-30T04:30:00.793Z,99880
2022-07-30T04:31:00.462Z,99880
2022-07-30T04:32:00.435Z,99880
2022-07-30T04:33:02.132Z,99880
2022-07-30T04:34:04.613Z,99890
2022-07-30T04:35:00.337Z,99890
2022-07-30T04:36:04.707Z,99880
2022-07-30T04:37:00.760Z,99880
2022-07-30T04:38:00.658Z,99880
2022-07-30T04:39:00.289Z,99890
2022-07-30T04:40:00.284Z,99890
2022-07-30T04:41:00.690Z,99890
2022-07-30T04:42:00.265Z,99890
2022-07-30T04:43:00.474Z,99890
2022-07-30T04:44:00.346Z,99890
2022-07-30T04:45:00.330Z,99890
2022-07-30T04:46:00.439Z,99890
2022-07-30T04:47:00.569Z,99900
2022-07-30T04:48:00.388Z,99900
2022-07-30T04:49:00.693Z,99900
2022-07-30T04:50:01.730Z,99900
2022-07-30T04:51:03.950Z,99900
2022-07-30T04:52:01.566Z,99900
2022-07-30T04:53:01.281Z,99900
2022-07-30T04:54:01.969Z,99900
2022-07-30T04:55:05.582Z,99900
2022-07-30T04:56:02.767Z,99900
2022-07-30T04:57:00.518Z,99900
2022-07-30T04:58:02.005Z,99900
2022-07-30T04:59:00.783Z,99900
2022-07-30T05:00:00.421Z,99900
2022-07-30T05:01:01.554Z,99900
2022-07-30T05:02:01.274Z,99900
2022-07-30T05:03:01.920Z,99910
2022-07-30T05:04:01.194Z,99900
2022-07-30T05:05:01.045Z,99900
2022-07-30T05:06:01.514Z,99900
2022-07-30T05:07:02.829Z,99900
2022-07-30T05:08:01.144Z,99910
2022-07-30T05:09:00.643Z,99900
2022-07-30T05:10:00.434Z,99900
2022-07-30T05:11:00.415Z,99900
2022-07-30T05:12:00.321Z,99900
2022-07-30T05:13:00.295Z,99900
2022-07-30T05:14:00.407Z,99900
2022-07-30T05:15:00.332Z,99900
2022-07-30T05:16:00.388Z,99910
2022-07-30T05:17:00.855Z,99900
2022-07-30T05:18:00.300Z,99910
2022-07-30T05:19:00.254Z,99910
2022-07-30T05:20:00.241Z,99900
2022-07-30T05:21:00.320Z,99910
2022-07-30T05:22:04.709Z,99910
2022-07-30T05:23:00.285Z,99910
2022-07-30T05:24:00.283Z,99910
2022-07-30T05:25:00.291Z,99910
2022-07-30T05:26:00.507Z,99910
2022-07-30T05:27:00.595Z,99910
2022-07-30T05:28:00.208Z,99910
2022-07-30T05:29:00.481Z,99920
2022-07-30T05:30:00.268Z,99920
2022-07-30T05:31:00.262Z,99920
2022-07-30T05:32:02.695Z,99920
2022-07-30T05:33:01.357Z,99920
2022-07-30T05:34:03.317Z,99920
2022-07-30T05:35:00.226Z,99920
2022-07-30T05:36:00.278Z,99920
2022-07-30T05:37:00.396Z,99920
2022-07-30T05:38:00.305Z,99920
2022-07-30T05:39:00.498Z,99920
2022-07-30T05:40:03.471Z,99920
2022-07-30T05:41:00.276Z,99920
2022-07-30T05:42:00.313Z,99920
2022-07-30T05:43:00.226Z,99920
2022-07-30T05:44:00.366Z,99920
2022-07-30T05:45:00.316Z,99930
2022-07-30T05:46:00.449Z,99920
2022-07-30T05:47:00.509Z,99920
2022-07-30T05:48:00.219Z,99920
2022-07-30T05:49:00.293Z,99920
2022-07-30T05:50:04.378Z,99920
2022-07-30T05:51:01.761Z,99920
2022-07-30T05:52:00.269Z,99920
2022-07-30T05:53:00.301Z,99920
2022-07-30T05:54:00.244Z,99920
2022-07-30T05:55:00.317Z,99920
2022-07-30T05:56:00.594Z,99920
2022-07-30T05:57:00.489Z,99920
2022-07-30T05:58:00.229Z,99920
2022-07-30T05:59:00.514Z,99920
2022-07-30T06:00:00.309Z,99920
2022-07-30T06:01:00.230Z,99920
2022-07-30T06:02:00.746Z,99920
2022-07-30T06:03:01.980Z,99910
2022-07-30T06:04:00.350Z,99910
2022-07-30T06:05:00.501Z,99910
2022-07-30T06:06:03.384Z,99910
2022-07-30T06:07:00.640Z,99910
2022-07-30T06:08:00.279Z,99910
2022-07-30T06:09:00.226Z,99910
2022-07-30T06:10:00.375Z,99910
2022-07-30T06:11:00.276Z,99900
2022-07-30T06:12:00.319Z,99900
2022-07-30T06:13:00.373Z,99900
2022-07-30T06:14:00.231Z,99900
2022-07-30T06:15:00.273Z,99900
2022-07-30T06:16:00.382Z,99900
2022-07-30T06:17:00.692Z,99890
2022-07-30T06:18:02.288Z,99900
2022-07-30T06:19:00.257Z,99900
2022-07-30T06:20:00.267Z,99890
2022-07-30T06:21:00.261Z,99890
2022-07-30T06:22:06.056Z,99900
2022-07-30T06:23:00.274Z,99900
2022-07-30T06:24:00.296Z,99900
2022-07-30T06:25:00.277Z,99900
2022-07-30T06:26:00.230Z,99900
2022-07-30T06:27:00.830Z,99900
2022-07-30T06:28:15.435Z,99900
2022-07-30T06:29:00.245Z,99900
2022-07-30T06:30:00.679Z,99900
2022-07-30T06:31:00.431Z,99900
2022-07-30T06:32:00.260Z,99900
2022-07-30T06:33:00.282Z,99900
2022-07-30T06:34:00.298Z,99900
2022-07-30T06:35:04.586Z,99900
2022-07-30T06:36:00.348Z,99900
2022-07-30T06:37:00.456Z,99900
2022-07-30T06:38:06.799Z,99900
2022-07-30T06:39:00.628Z,99900
2022-07-30T06:40:00.373Z,99910
2022-07-30T06:41:02.590Z,99900
2022-07-30T06:42:00.327Z,99900
2022-07-30T06:43:00.354Z,99900
2022-07-30T06:44:00.305Z,99900
2022-07-30T06:45:00.233Z,99900
2022-07-30T06:46:00.458Z,99900
2022-07-30T06:47:05.391Z,99900
2022-07-30T06:48:00.280Z,99900
2022-07-30T06:49:00.356Z,99900
2022-07-30T06:50:00.739Z,99900
2022-07-30T06:51:00.304Z,99900
2022-07-30T06:52:00.658Z,99900
2022-07-30T06:53:00.264Z,99900
2022-07-30T06:54:00.270Z,99900
2022-07-30T06:55:00.377Z,99900
2022-07-30T06:56:00.653Z,99900
2022-07-30T06:57:00.660Z,99900
2022-07-30T06:58:00.299Z,99900
2022-07-30T06:59:00.336Z,99900
2022-07-30T07:00:00.447Z,99900
2022-07-30T07:01:00.345Z,99890
2022-07-30T07:02:00.273Z,99890
2022-07-30T07:03:00.222Z,99890
2022-07-30T07:04:00.447Z,99890
2022-07-30T07:05:00.455Z,99890
2022-07-30T07:06:00.223Z,99890
2022-07-30T07:07:00.470Z,99890
2022-07-30T07:08:00.286Z,99890
2022-07-30T07:09:00.531Z,99890
2022-07-30T07:10:00.309Z,99900
2022-07-30T07:11:00.215Z,99890
2022-07-30T07:12:00.365Z,99890
2022-07-30T07:13:00.260Z,99900
2022-07-30T07:14:04.059Z,99900
2022-07-30T07:15:00.312Z,99890
2022-07-30T07:16:00.361Z,99900
2022-07-30T07:17:00.747Z,99900
2022-07-30T07:18:00.572Z,99890
2022-07-30T07:19:00.215Z,99890
2022-07-30T07:20:02.572Z,99890
2022-07-30T07:21:00.245Z,99900
2022-07-30T07:22:00.294Z,99890
2022-07-30T07:23:05.307Z,99900
2022-07-30T07:24:00.521Z,99900
2022-07-30T07:25:00.261Z,99900
2022-07-30T07:26:00.236Z,99900
2022-07-30T07:27:00.609Z,99900
2022-07-30T07:28:11.622Z,99890
2022-07-30T07:29:04.852Z,99900
2022-07-30T07:30:01.486Z,99900
2022-07-30T07:31:00.719Z,99900
2022-07-30T07:32:06.919Z,99900
2022-07-30T07:33:00.341Z,99900
2022-07-30T07:34:00.231Z,99900
2022-07-30T07:35:00.581Z,99900
2022-07-30T07:36:00.249Z,99900
2022-07-30T07:37:00.492Z,99900
2022-07-30T07:38:00.270Z,99900
2022-07-30T07:39:00.275Z,99900
2022-07-30T07:40:00.372Z,99900
2022-07-30T07:41:00.294Z,99900
2022-07-30T07:42:00.238Z,99900
2022-07-30T07:43:00.248Z,99900
2022-07-30T07:44:00.253Z,99900
2022-07-30T07:45:00.258Z,99900
2022-07-30T07:46:00.439Z,99900
2022-07-30T07:47:00.535Z,99900
2022-07-30T07:48:00.394Z,99900
2022-07-30T07:49:01.027Z,99900
2022-07-30T07:50:00.477Z,99890
2022-07-30T07:51:00.870Z,99890
2022-07-30T07:52:00.253Z,99890
2022-07-30T07:53:00.317Z,99900
2022-07-30T07:54:20.006Z,99890
2022-07-30T07:55:00.272Z,99890
2022-07-30T07:56:00.307Z,99890
2022-07-30T07:57:00.843Z,99890
2022-07-30T07:58:00.457Z,99890
2022-07-30T07:59:00.258Z,99890
2022-07-30T08:00:00.279Z,99890
2022-07-30T08:01:00.315Z,99890
2022-07-30T08:02:00.302Z,99890
2022-07-30T08:03:00.219Z,99890
2022-07-30T08:04:00.222Z,99890
2022-07-30T08:05:00.248Z,99890
2022-07-30T08:06:06.300Z,99890
2022-07-30T08:07:00.443Z,99890
2022-07-30T08:08:00.321Z,99880
2022-07-30T08:09:00.223Z,99880
2022-07-30T08:10:00.291Z,99880
2022-07-30T08:11:00.308Z,99880
2022-07-30T08:12:00.268Z,99880
2022-07-30T08:13:00.251Z,99890
2022-07-30T08:14:00.270Z,99880
2022-07-30T08:15:00.605Z,99880
2022-07-30T08:16:01.022Z,99880
2022-07-30T08:17:00.710Z,99880
2022-07-30T08:18:00.278Z,99890
2022-07-30T08:19:00.396Z,99880
2022-07-30T08:20:00.379Z,99890
2022-07-30T08:21:00.231Z,99890
2022-07-30T08:22:00.225Z,99890
2022-07-30T08:23:00.851Z,99890
2022-07-30T08:24:00.253Z,99890
2022-07-30T08:25:00.256Z,99890
2022-07-30T08:26:00.244Z,99890
2022-07-30T08:27:00.507Z,99890
2022-07-30T08:28:00.337Z,99890
2022-07-30T08:29:00.247Z,99890
2022-07-30T08:30:02.646Z,99900
2022-07-30T08:31:02.407Z,99900
2022-07-30T08:32:01.370Z,99890
2022-07-30T08:33:00.281Z,99900
2022-07-30T08:34:00.215Z,99890
2022-07-30T08:35:00.358Z,99900
2022-07-30T08:36:03.189Z,99900
2022-07-30T08:37:00.673Z,99890
2022-07-30T08:38:00.223Z,99890
2022-07-30T08:39:00.351Z,99890
2022-07-30T08:40:00.373Z,99890
2022-07-30T08:41:00.257Z,99890
2022-07-30T08:42:02.518Z,99890
2022-07-30T08:43:03.961Z,99890
2022-07-30T08:44:00.307Z,99890
2022-07-30T08:45:00.637Z,99890
2022-07-30T08:46:01.099Z,99890
2022-07-30T08:47:02.146Z,99890
2022-07-30T08:48:01.562Z,99890
2022-07-30T08:49:07.565Z,99890
2022-07-30T08:50:01.266Z,99890
2022-07-30T08:51:01.175Z,99890
2022-07-30T08:52:00.721Z,99890
2022-07-30T08:53:00.836Z,99890
2022-07-30T08:54:00.513Z,99890
2022-07-30T08:55:00.923Z,99890
2022-07-30T08:56:00.972Z,99890
2022-07-30T08:57:01.389Z,99890
2022-07-30T08:58:00.525Z,99900
2022-07-30T08:59:00.799Z,99900
2022-07-30T09:00:01.930Z,99900
2022-07-30T09:01:01.661Z,99900
2022-07-30T09:02:00.652Z,99900
2022-07-30T09:03:00.379Z,99900
2022-07-30T09:04:00.517Z,99910
2022-07-30T09:05:00.309Z,99910
2022-07-30T09:06:01.223Z,99910
2022-07-30T09:07:01.141Z,99910
2022-07-30T09:08:00.245Z,99910
2022-07-30T09:09:00.234Z,99910
2022-07-30T09:10:00.462Z,99910
2022-07-30T09:11:00.362Z,99900
2022-07-30T09:12:00.325Z,99910
2022-07-30T09:13:00.302Z,99910
2022-07-30T09:14:11.492Z,99900
2022-07-30T09:15:06.225Z,99900
2022-07-30T09:16:01.766Z,99900
2022-07-30T09:17:00.535Z,99900
2022-07-30T09:18:03.250Z,99900
2022-07-30T09:19:11.397Z,99900
2022-07-30T09:20:03.426Z,99900
2022-07-30T09:21:13.621Z,99900
2022-07-30T09:22:00.929Z,99900
2022-07-30T09:23:02.713Z,99900
2022-07-30T09:24:04.672Z,99910
2022-07-30T09:25:00.288Z,99910
2022-07-30T09:26:00.217Z,99900
2022-07-30T09:27:03.113Z,99910
2022-07-30T09:28:00.731Z,99910
2022-07-30T09:29:14.516Z,99920
2022-07-30T09:30:00.265Z,99920
2022-07-30T09:31:00.241Z,99920
2022-07-30T09:32:03.230Z,99920
2022-07-30T09:33:00.216Z,99920
2022-07-30T09:34:00.260Z,99930
2022-07-30T09:35:10.958Z,99920
2022-07-30T09:36:00.932Z,99920
2022-07-30T09:37:02.786Z,99920
2022-07-30T09:38:05.880Z,99920
2022-07-30T09:39:00.275Z,99920
2022-07-30T09:40:10.808Z,99930
2022-07-30T09:41:08.142Z,99930
2022-07-30T09:42:01.438Z,99930
2022-07-30T09:43:02.952Z,99930
2022-07-30T09:44:02.920Z,99930
2022-07-30T09:45:09.603Z,99930
2022-07-30T09:46:00.319Z,99930
2022-07-30T09:47:00.277Z,99930
2022-07-30T09:48:01.011Z,99930
2022-07-30T09:49:14.371Z,99930
2022-07-30T09:50:07.183Z,99930
2022-07-30T09:51:00.248Z,99930
2022-07-30T09:52:00.558Z,99930
2022-07-30T09:53:08.957Z,99930
2022-07-30T09:54:00.406Z,99930
2022-07-30T09:55:00.423Z,99930
2022-07-30T09:56:00.606Z,99930
2022-07-30T09:57:26.025Z,99930
2022-07-30T09:58:03.035Z,99930
2022-07-30T09:59:00.280Z,99930
2022-07-30T10:00:19.093Z,99930
2022-07-30T10:01:00.734Z,99930
2022-07-30T10:02:01.461Z,99930
2022-07-30T10:03:01.060Z,99930
2022-07-30T10:04:00.289Z,99930
2022-07-30T10:05:08.815Z,99930
2022-07-30T10:06:00.633Z,99930
2022-07-30T10:07:01.036Z,99930
2022-07-30T10:08:02.619Z,99930
2022-07-30T10:09:00.279Z,99930
2022-07-30T10:10:00.969Z,99930
2022-07-30T10:11:00.304Z,99930
2022-07-30T10:12:03.032Z,99930
2022-07-30T10:13:04.496Z,99930
2022-07-30T10:14:01.239Z,99930
2022-07-30T10:15:02.353Z,99930
2022-07-30T10:16:00.767Z,99930
2022-07-30T10:17:01.206Z,99930
2022-07-30T10:18:01.619Z,99930
2022-07-30T10:19:00.542Z,99920
2022-07-30T10:20:03.063Z,99920
2022-07-30T10:21:01.595Z,99920
2022-07-30T10:22:00.660Z,99920
2022-07-30T10:23:00.572Z,99920
2022-07-30T10:24:00.980Z,99920
2022-07-30T10:25:01.585Z,99910
2022-07-30T10:26:00.959Z,99920
2022-07-30T10:27:01.281Z,99920
2022-07-30T10:28:02.950Z,99910
2022-07-30T10:29:00.797Z,99910
2022-07-30T10:30:03.455Z,99910
2022-07-30T10:31:00.322Z,99910
2022-07-30T10:32:01.318Z,99910
2022-07-30T10:33:01.579Z,99910
2022-07-30T10:34:01.266Z,99910
2022-07-30T10:35:00.318Z,99910
2022-07-30T10:36:02.599Z,99910
2022-07-30T10:37:06.547Z,99910
2022-07-30T10:38:01.324Z,99910
2022-07-30T10:39:00.900Z,99910
2022-07-30T10:40:04.773Z,99900
2022-07-30T10:41:06.404Z,99910
2022-07-30T10:42:10.194Z,99910
2022-07-30T10:43:20.133Z,99910
2022-07-30T10:44:12.151Z,99900
2022-07-30T10:45:17.281Z,99900
2022-07-30T10:46:19.919Z,99900
2022-07-30T10:47:07.034Z,99900
2022-07-30T10:48:02.884Z,99900
2022-07-30T10:49:19.058Z,99900
2022-07-30T10:50:10.579Z,99900
2022-07-30T10:51:00.368Z,99900
2022-07-30T10:52:00.548Z,99900
2022-07-30T10:53:00.630Z,99910
2022-07-30T10:54:00.422Z,99910
2022-07-30T10:55:00.233Z,99910
2022-07-30T10:56:11.214Z,99900
2022-07-30T10:57:10.660Z,99900
2022-07-30T10:58:09.984Z,99900
2022-07-30T10:59:03.866Z,99900
2022-07-30T11:00:00.831Z,99900
2022-07-30T11:01:00.278Z,99890
2022-07-30T11:02:00.269Z,99900
2022-07-30T11:03:14.038Z,99900
2022-07-30T11:04:20.458Z,99900
2022-07-30T11:05:17.496Z,99900
2022-07-30T11:06:24.279Z,99900
2022-07-30T11:07:20.135Z,99900
2022-07-30T11:08:20.149Z,99900
2022-07-30T11:09:00.248Z,99900
2022-07-30T11:10:09.371Z,99900
2022-07-30T11:11:19.780Z,99900
2022-07-30T11:12:06.108Z,99890
2022-07-30T11:13:00.337Z,99900
2022-07-30T11:14:00.336Z,99900
2022-07-30T11:15:06.284Z,99900
2022-07-30T11:16:00.399Z,99900
2022-07-30T11:17:00.305Z,99900
2022-07-30T11:18:12.665Z,99900
2022-07-30T11:19:55.786Z,99900
2022-07-30T11:20:02.009Z,99900
2022-07-30T11:21:14.413Z,99890
2022-07-30T11:22:20.135Z,99890
2022-07-30T11:23:20.129Z,99900
2022-07-30T11:24:01.118Z,99900
2022-07-30T11:25:00.557Z,99880
2022-07-30T11:26:00.259Z,99890
2022-07-30T11:27:00.462Z,99890
2022-07-30T11:28:00.403Z,99890
2022-07-30T11:29:00.250Z,99880
2022-07-30T11:30:00.525Z,99880
2022-07-30T11:31:00.223Z,99880
2022-07-30T11:32:20.124Z,99880
2022-07-30T11:33:03.508Z,99880
2022-07-30T11:34:17.548Z,99880
2022-07-30T11:35:11.201Z,99880
2022-07-30T11:36:11.426Z,99870
2022-07-30T11:37:18.182Z,99880
2022-07-30T11:38:13.571Z,99880
2022-07-30T11:39:05.095Z,99880
2022-07-30T11:40:05.480Z,99880
2022-07-30T11:41:00.230Z,99880
2022-07-30T11:42:20.162Z,99870
2022-07-30T11:43:20.244Z,99870
2022-07-30T11:44:20.130Z,99870
2022-07-30T11:45:17.490Z,99880
2022-07-30T11:46:15.787Z,99880
2022-07-30T11:47:01.712Z,99880
2022-07-30T11:48:00.313Z,99880
2022-07-30T11:49:03.148Z,99880
2022-07-30T11:50:00.294Z,99880
2022-07-30T11:51:03.815Z,99880
2022-07-30T11:52:00.848Z,99880
2022-07-30T11:53:05.243Z,99870
2022-07-30T11:54:05.951Z,99870
2022-07-30T11:55:00.228Z,99870
2022-07-30T11:56:01.620Z,99880
2022-07-30T11:57:04.379Z,99880
2022-07-30T11:58:03.082Z,99880
2022-07-30T11:59:03.200Z,99880
2022-07-30T12:00:00.229Z,99880
2022-07-30T12:01:09.315Z,99880
2022-07-30T12:02:00.673Z,99880
2022-07-30T12:03:06.755Z,99870
2022-07-30T12:04:03.531Z,99870
2022-07-30T12:05:00.407Z,99870
2022-07-30T12:06:05.012Z,99870
2022-07-30T12:07:00.544Z,99870
2022-07-30T12:08:00.286Z,99870
2022-07-30T12:09:00.728Z,99870
2022-07-30T12:10:10.938Z,99870
2022-07-30T12:11:00.789Z,99870
2022-07-30T12:12:00.844Z,99870
2022-07-30T12:13:09.468Z,99870
2022-07-30T12:14:01.057Z,99870
2022-07-30T12:15:01.837Z,99870
2022-07-30T12:16:00.244Z,99870
2022-07-30T12:17:00.571Z,99870
2022-07-30T12:18:24.256Z,99870
2022-07-30T12:19:02.562Z,99870
2022-07-30T12:20:00.338Z,99870
2022-07-30T12:21:03.938Z,99870
2022-07-30T12:22:00.333Z,99870
2022-07-30T12:23:00.322Z,99870
2022-07-30T12:24:03.061Z,99870
2022-07-30T12:25:06.211Z,99870
2022-07-30T12:26:00.445Z,99870
2022-07-30T12:27:05.118Z,99870
2022-07-30T12:28:00.676Z,99870
2022-07-30T12:29:03.907Z,99870
2022-07-30T12:30:00.953Z,99870
2022-07-30T12:31:00.912Z,99870
2022-07-30T12:32:00.581Z,99870
2022-07-30T12:33:00.332Z,99870
2022-07-30T12:34:00.587Z,99870
2022-07-30T12:35:00.603Z,99870
2022-07-30T12:36:00.222Z,99870
2022-07-30T12:37:09.023Z,99870
2022-07-30T12:38:01.696Z,99870
2022-07-30T12:39:02.122Z,99870
2022-07-30T12:40:14.831Z,99870
2022-07-30T12:41:02.375Z,99870
2022-07-30T12:42:00.259Z,99870
2022-07-30T12:43:00.276Z,99870
2022-07-30T12:44:00.229Z,99870
2022-07-30T12:45:00.636Z,99870
2022-07-30T12:46:00.278Z,99870
2022-07-30T12:47:00.912Z,99870
2022-07-30T12:48:00.430Z,99860
2022-07-30T12:49:06.961Z,99870
2022-07-30T12:50:01.808Z,99860